Time;durP1;ratioP1;P1;durP2;ratioP2;P2;SDS_P1;SDS_P2;PMS_P1;PMS_P2;Temp;Humidity;BMP_temperature;BMP_pressure;BME280_temperature;BME280_humidity;BME280_pressure;Samples;Min_cycle;Max_cycle;Signal;HPM_P1;HPM_P2
2022/06/10 00:00:33;;;;;;;12.70;5.40;;;;;;;11.88;91.58;101907.16;4993297;28;20036;-91
2022/06/10 00:02:59;;;;;;;7.22;4.75;;;;;;;11.85;91.13;101906.38;4996271;28;20031;-91
2022/06/10 00:05:27;;;;;;;11.27;4.97;;;;;;;11.79;91.55;101911.91;4989802;28;20053;-91
2022/06/10 00:07:53;;;;;;;8.18;5.05;;;;;;;11.77;92.13;101908.44;4993325;28;20027;-91
2022/06/10 00:10:23;;;;;;;10.90;5.20;;;;;;;11.71;91.84;101912.25;4989062;28;20089;-92
2022/06/10 00:12:49;;;;;;;10.88;5.03;;;;;;;11.72;91.32;101911.31;4993038;28;20031;-91
2022/06/10 00:15:15;;;;;;;14.80;6.65;;;;;;;11.68;91.51;101905.22;4990190;28;20030;-91
2022/06/10 00:17:41;;;;;;;10.32;5.43;;;;;;;11.67;92.17;101910.63;4982968;28;20042;-92
2022/06/10 00:20:08;;;;;;;12.15;5.82;;;;;;;11.67;92.13;101914.16;5001025;28;20061;-91
2022/06/10 00:22:33;;;;;;;10.68;5.45;;;;;;;11.67;92.14;101918.63;5006914;28;20049;-90
2022/06/10 00:24:59;;;;;;;11.40;5.40;;;;;;;11.66;91.85;101916.84;4991421;28;20042;-90
2022/06/10 00:27:25;;;;;;;13.85;4.97;;;;;;;11.63;91.12;101909.00;4997556;28;20508;-91
2022/06/10 00:29:50;;;;;;;13.43;5.60;;;;;;;11.67;92.33;101913.28;4994029;28;20058;-90
2022/06/10 00:32:17;;;;;;;9.02;4.82;;;;;;;11.67;92.33;101916.81;4994949;28;20034;-89
2022/06/10 00:34:43;;;;;;;12.77;5.68;;;;;;;11.66;92.09;101917.75;4995924;28;20108;-90
2022/06/10 00:37:09;;;;;;;12.77;5.03;;;;;;;11.64;91.89;101908.94;4990905;28;20033;-90
2022/06/10 00:39:34;;;;;;;9.52;4.85;;;;;;;11.68;91.91;101904.34;4994806;28;20448;-90
2022/06/10 00:42:04;;;;;;;9.70;5.13;;;;;;;11.72;92.88;101905.97;4994710;28;20026;-89
2022/06/10 00:44:52;;;;;;;9.38;4.57;;;;;;;11.78;92.41;101907.50;4996260;28;20490;-90
2022/06/10 00:47:26;;;;;;;11.98;5.30;;;;;;;11.84;92.21;101902.84;4990583;28;20065;-91
2022/06/10 00:49:58;;;;;;;7.05;4.38;;;;;;;11.88;92.47;101901.81;4998159;28;20027;-92
2022/06/10 00:52:29;;;;;;;10.95;5.13;;;;;;;11.90;92.67;101894.59;4992813;28;20047;-91
2022/06/10 00:54:55;;;;;;;10.80;4.63;;;;;;;11.93;91.90;101902.50;4995772;28;20110;-93
2022/06/10 00:57:29;;;;;;;13.15;5.00;;;;;;;11.92;92.03;101892.75;4995564;28;20173;-90
2022/06/10 00:59:54;;;;;;;;;;;;;;;12.01;90.60;101893.31;4990837;28;20037;-91
2022/06/10 01:02:23;;;;;;;7.23;4.50;;;;;;;11.97;91.77;101897.91;4997496;28;19925;-91
2022/06/10 01:04:49;;;;;;;11.10;4.43;;;;;;;11.96;91.63;101896.16;4992404;28;20606;-92
2022/06/10 01:07:20;;;;;;;9.65;4.53;;;;;;;11.98;91.39;101902.31;4996643;28;20477;-90
2022/06/10 01:09:48;;;;;;;8.05;4.55;;;;;;;12.01;91.76;101904.00;4994860;28;20030;-91
2022/06/10 01:12:37;;;;;;;12.82;5.47;;;;;;;12.04;91.00;101898.50;4994198;28;20031;-93
2022/06/10 01:15:27;;;;;;;11.40;5.93;;;;;;;12.10;91.40;101892.94;4990722;28;20034;-90
2022/06/10 01:18:20;;;;;;;16.73;6.40;;;;;;;12.17;91.42;101895.31;4991703;28;20499;-91
2022/06/10 01:21:03;;;;;;;12.88;5.85;;;;;;;12.21;91.61;101902.25;4991345;28;20061;-91
2022/06/10 01:23:53;;;;;;;14.40;7.15;;;;;;;12.27;89.87;101903.78;4988369;28;20031;-90
2022/06/10 01:30:00;;;;;;;17.02;6.88;;;;;;;12.37;89.61;101904.28;4987124;28;20045;-90
2022/06/10 01:33:07;;;;;;;17.65;6.53;;;;;;;12.41;88.87;101900.53;4994971;28;20015;-91
2022/06/10 01:35:56;;;;;;;18.73;6.93;;;;;;;12.42;88.73;101903.16;4986939;28;20018;-91
2022/06/10 01:38:32;;;;;;;15.40;6.20;;;;;;;12.42;88.63;101897.84;4983932;28;20824;-90
2022/06/10 01:41:27;;;;;;;18.38;6.38;;;;;;;12.50;88.14;101901.97;4989128;28;20039;-90
2022/06/10 01:44:10;;;;;;;22.38;6.53;;;;;;;12.51;87.98;101901.06;4989358;28;20080;-90
2022/06/10 01:46:40;;;;;;;21.47;6.10;;;;;;;12.49;87.72;101897.56;4991305;28;20041;-91
2022/06/10 01:49:11;;;;;;;26.25;7.13;;;;;;;12.46;86.82;101895.91;4995571;28;20038;-90
2022/06/10 01:52:00;;;;;;;19.08;6.57;;;;;;;12.46;87.04;101903.91;4988482;28;20636;-88
2022/06/10 01:54:37;;;;;;;21.92;6.28;;;;;;;12.42;86.37;101902.31;4980735;28;20109;-91
2022/06/10 01:57:13;;;;;;;23.00;6.90;;;;;;;12.40;87.12;101891.66;4990727;28;20110;-93
2022/06/10 01:59:44;;;;;;;18.33;6.05;;;;;;;12.36;86.92;101898.06;4991097;28;20051;-92
2022/06/10 02:02:17;;;;;;;14.05;6.43;;;;;;;12.38;86.71;101895.34;4990592;28;20109;-89
2022/06/10 02:05:07;;;;;;;17.60;5.88;;;;;;;12.38;85.92;101898.88;4989331;28;20030;-90
2022/06/10 02:07:38;;;;;;;23.35;6.05;;;;;;;12.39;86.30;101903.28;4992825;28;20007;-93
2022/06/10 02:10:21;;;;;;;18.30;5.57;;;;;;;12.44;86.18;101900.44;5007352;28;20042;-92
2022/06/10 02:12:52;;;;;;;19.30;6.22;;;;;;;12.50;86.71;101902.84;4994238;28;20014;-91
2022/06/10 02:15:23;;;;;;;15.70;5.68;;;;;;;12.53;86.71;101896.50;5001151;28;20033;-91
2022/06/10 02:17:56;;;;;;;20.92;6.05;;;;;;;12.57;86.28;101904.31;4995315;28;20061;-89
2022/06/10 02:20:26;;;;;;;19.08;5.05;;;;;;;12.58;86.04;101899.84;4986882;28;20121;-91
2022/06/10 02:22:56;;;;;;;15.70;5.40;;;;;;;12.60;86.72;101898.84;4990655;28;20023;-90
2022/06/10 02:25:33;;;;;;;16.15;5.60;;;;;;;12.63;86.17;101905.88;4999323;28;20041;-92
2022/06/10 02:28:03;;;;;;;19.00;6.00;;;;;;;12.65;86.23;101910.19;4994303;28;20038;-92
2022/06/10 02:30:34;;;;;;;21.95;6.28;;;;;;;12.66;85.43;101908.38;4992854;28;20260;-92
2022/06/10 02:32:59;;;;;;;23.27;6.68;;;;;;;12.67;85.81;101921.69;5000374;28;20086;-91
2022/06/10 02:35:38;;;;;;;18.38;5.95;;;;;;;12.69;85.44;101921.63;5002369;28;20500;-92
2022/06/10 02:38:28;;;;;;;15.85;5.35;;;;;;;12.70;86.06;101912.66;4983813;28;20034;-93
2022/06/10 02:41:03;;;;;;;17.10;5.85;;;;;;;12.73;85.46;101917.88;4992496;28;20034;-91
2022/06/10 02:43:35;;;;;;;16.42;5.80;;;;;;;12.70;85.12;101912.66;4989127;28;20046;-93
2022/06/10 02:46:21;;;;;;;18.83;5.30;;;;;;;12.74;85.02;101916.09;4984327;28;20042;-94
2022/06/10 02:49:02;;;;;;;15.90;4.90;;;;;;;12.73;85.59;101917.88;5002288;28;20074;-90
2022/06/10 02:51:29;;;;;;;14.55;4.90;;;;;;;12.68;85.07;101920.75;5003302;28;20511;-94
2022/06/10 02:53:54;;;;;;;14.43;5.15;;;;;;;12.71;85.01;101925.97;4999160;28;20038;-92
2022/06/10 02:56:26;;;;;;;14.68;5.43;;;;;;;12.75;84.99;101920.47;5000612;28;20361;-93
2022/06/10 03:01:50;;;;;;;11.13;4.65;;;;;;;12.76;85.39;101928.44;5000625;28;20531;-93
2022/06/10 03:04:23;;;;;;;12.55;4.13;;;;;;;12.76;84.65;101924.91;5000645;28;20038;-93
2022/06/10 03:07:24;;;;;;;16.00;5.25;;;;;;;12.77;85.42;101924.84;5003361;28;20034;-94
2022/06/10 03:10:25;;;;;;;11.70;4.55;;;;;;;12.79;84.87;101938.13;4973002;28;20404;-91
2022/06/10 03:13:17;;;;;;;13.25;4.40;;;;;;;12.78;85.22;101939.06;5003793;28;20403;-90
2022/06/10 03:16:00;;;;;;;13.07;4.25;;;;;;;12.81;85.66;101928.25;4983768;28;20129;-92
2022/06/10 03:18:40;;;;;;;11.43;3.97;;;;;;;12.81;85.68;101921.09;4999373;28;20038;-90
2022/06/10 03:21:15;;;;;;;12.82;4.30;;;;;;;12.84;85.59;101936.16;4994238;28;20038;-91
2022/06/10 03:24:07;;;;;;;14.50;5.25;;;;;;;12.87;85.84;101936.00;4989106;28;20735;-92
2022/06/10 03:26:54;;;;;;;13.43;5.82;;;;;;;12.87;86.25;101931.50;4996356;28;20104;-92
2022/06/10 03:29:32;;;;;;;13.73;6.38;;;;;;;12.84;86.03;101926.31;4996305;28;20026;-90
2022/06/10 03:32:03;;;;;;;9.20;5.80;;;;;;;12.87;86.48;101944.88;4982355;28;20033;-90
2022/06/10 03:34:35;;;;;;;15.00;6.28;;;;;;;12.87;85.79;101942.19;4988839;28;20460;-90
2022/06/10 03:37:03;;;;;;;16.52;6.78;;;;;;;12.86;86.26;101935.13;4990361;28;20019;-91
2022/06/10 03:39:29;;;;;;;14.25;5.70;;;;;;;12.84;85.56;101941.50;5008965;28;20022;-90
2022/06/10 03:42:03;;;;;;;12.90;5.93;;;;;;;12.88;86.35;101943.97;4988659;28;20180;-91
2022/06/10 03:44:31;;;;;;;12.45;4.93;;;;;;;12.88;85.86;101941.28;5008217;28;20423;-90
2022/06/10 03:46:57;;;;;;;10.45;5.07;;;;;;;12.90;86.35;101944.75;4992211;28;20243;-92
2022/06/10 03:49:28;;;;;;;11.25;4.90;;;;;;;12.88;85.98;101940.41;4990629;28;20038;-92
2022/06/10 03:51:54;;;;;;;11.23;4.72;;;;;;;12.89;85.96;101944.81;4993937;28;20047;-91
2022/06/10 03:54:20;;;;;;;14.48;4.57;;;;;;;12.92;85.94;101942.91;5019551;28;20097;-92
2022/06/10 03:56:46;;;;;;;9.48;4.60;;;;;;;12.92;86.24;101956.25;5002669;28;20124;-94
2022/06/10 03:59:12;;;;;;;12.25;4.32;;;;;;;12.93;86.31;101952.63;4988108;28;20095;-91
2022/06/10 04:01:38;;;;;;;9.95;4.18;;;;;;;12.95;86.46;101955.22;4992734;28;20085;-92
2022/06/10 04:04:04;;;;;;;11.90;4.22;;;;;;;12.95;86.03;101955.22;4994424;28;20042;-92
2022/06/10 04:06:29;;;;;;;15.43;4.20;;;;;;;12.95;86.55;101945.41;4994793;28;20039;-91
2022/06/10 04:08:55;;;;;;;10.25;4.13;;;;;;;12.99;86.16;101948.81;4985042;28;20499;-92
2022/06/10 04:11:21;;;;;;;13.93;5.05;;;;;;;13.03;86.78;101957.59;4999564;28;20010;-91
2022/06/10 04:13:46;;;;;;;9.88;4.68;;;;;;;13.05;86.31;101955.72;4992803;28;20045;-92
2022/06/10 04:16:12;;;;;;;11.85;5.57;;;;;;;13.09;86.72;101955.53;4992804;28;20042;-92
2022/06/10 04:18:38;;;;;;;17.85;6.05;;;;;;;13.12;86.99;101949.16;4992923;28;20030;-91
2022/06/10 04:21:04;;;;;;;9.48;5.72;;;;;;;13.14;86.49;101952.66;5005725;28;20108;-91
2022/06/10 04:23:30;;;;;;;14.57;6.72;;;;;;;13.20;86.55;101965.72;4997413;28;20423;-93
2022/06/10 04:25:55;;;;;;;10.32;5.47;;;;;;;13.25;86.03;101962.88;4996879;28;20054;-93
2022/06/10 04:28:21;;;;;;;11.70;5.78;;;;;;;13.29;85.98;101956.47;4996058;28;20068;-92
2022/06/10 04:30:49;;;;;;;12.57;6.40;;;;;;;13.32;85.78;101964.34;5008520;28;20057;-91
2022/06/10 04:33:14;;;;;;;13.38;4.93;;;;;;;13.35;85.38;101964.22;5001787;28;20030;-90
2022/06/10 04:35:42;;;;;;;10.77;4.70;;;;;;;13.39;85.60;101966.69;4993186;28;20038;-94
2022/06/10 04:38:08;;;;;;;8.75;4.63;;;;;;;13.43;85.59;101962.09;4991458;28;20050;-91
2022/06/10 04:40:36;;;;;;;9.85;4.60;;;;;;;13.47;85.15;101968.16;4997486;28;20428;-92
2022/06/10 04:43:03;;;;;;;9.25;4.72;;;;;;;13.50;85.91;101957.31;4992686;28;20031;-91
2022/06/10 04:45:32;;;;;;;12.48;4.70;;;;;;;13.54;85.40;101970.47;4999681;28;20077;-92
2022/06/10 04:47:58;;;;;;;10.93;4.68;;;;;;;13.60;85.30;101969.34;5002087;28;20026;-93
2022/06/10 04:50:26;;;;;;;10.43;4.47;;;;;;;13.65;85.26;101970.00;4996490;28;20033;-93
2022/06/10 04:52:52;;;;;;;9.90;4.38;;;;;;;13.70;84.70;101976.84;5009404;28;20350;-91
2022/06/10 04:55:18;;;;;;;12.80;5.22;;;;;;;13.77;84.78;101974.78;4995815;28;20035;-89
2022/06/10 04:57:44;;;;;;;12.20;5.22;;;;;;;13.78;85.06;101975.66;4997706;28;20037;-91
2022/06/10 05:00:15;;;;;;;12.82;5.15;;;;;;;13.84;85.31;101970.03;4993539;28;20042;-93
2022/06/10 05:02:41;;;;;;;14.90;5.75;;;;;;;13.83;84.85;101970.94;4981430;28;20058;-93
2022/06/10 05:05:07;;;;;;;14.45;5.90;;;;;;;13.85;84.67;101969.06;4979821;28;20026;-91
2022/06/10 05:07:32;;;;;;;10.38;5.25;;;;;;;13.82;85.09;101970.06;4993187;28;20413;-92
2022/06/10 05:09:57;;;;;;;7.63;4.85;;;;;;;13.78;85.21;101965.81;4994591;28;20253;-91
2022/06/10 05:12:23;;;;;;;14.73;5.30;;;;;;;13.80;85.41;101979.13;5001522;28;20117;-89
2022/06/10 05:14:48;;;;;;;11.20;5.40;;;;;;;13.80;86.04;101974.66;4992358;28;20030;-91
2022/06/10 05:17:13;;;;;;;11.55;5.28;;;;;;;13.82;86.18;101978.09;4994085;28;20076;-92
2022/06/10 05:19:39;;;;;;;15.25;5.50;;;;;;;13.85;85.70;101964.59;4993640;28;20031;-92
2022/06/10 05:22:04;;;;;;;11.75;5.45;;;;;;;13.87;85.57;101972.53;4996019;28;20121;-91
2022/06/10 05:24:30;;;;;;;11.30;4.63;;;;;;;13.88;85.15;101975.16;5000110;28;20113;-91
2022/06/10 05:26:55;;;;;;;7.13;3.63;;;;;;;13.91;85.29;101963.41;4994832;28;20027;-91
2022/06/10 05:29:21;;;;;;;9.30;4.80;;;;;;;13.94;85.24;101963.28;4995939;28;20046;-92
2022/06/10 05:31:46;;;;;;;11.65;5.25;;;;;;;13.95;86.46;101968.56;4993192;28;20076;-90
2022/06/10 05:36:56;;;;;;;10.52;4.53;;;;;;;14.03;85.37;101959.31;4993351;28;20068;-91
2022/06/10 05:39:21;;;;;;;14.68;3.97;;;;;;;14.10;85.19;101968.78;4984458;28;20062;-91
2022/06/10 05:42:05;;;;;;;10.85;3.75;;;;;;;14.13;85.69;101961.47;4996193;28;20057;-92
2022/06/10 05:44:31;;;;;;;9.93;3.38;;;;;;;14.20;85.18;101967.41;4997193;28;20026;-92
2022/06/10 05:46:56;;;;;;;9.10;2.85;;;;;;;14.26;84.26;101963.56;4988999;28;20038;-91
2022/06/10 05:49:23;;;;;;;10.35;3.30;;;;;;;14.35;84.70;101968.47;4995080;28;20048;-93
2022/06/10 05:51:49;;;;;;;10.32;3.25;;;;;;;14.42;84.33;101960.06;4993087;28;20044;-92
2022/06/10 05:54:16;;;;;;;6.43;2.70;;;;;;;14.50;84.34;101962.38;4995518;28;20093;-91
2022/06/10 05:56:43;;;;;;;11.07;3.03;;;;;;;14.57;84.32;101957.59;4985501;28;20036;-90
2022/06/10 05:59:10;;;;;;;7.25;2.65;;;;;;;14.68;84.64;101957.94;4983411;28;20038;-91
2022/06/10 06:01:36;;;;;;;9.23;3.10;;;;;;;14.76;84.55;101961.09;4989441;28;20048;-92
2022/06/10 06:04:01;;;;;;;8.52;3.00;;;;;;;14.90;84.45;101961.25;4994413;28;20027;-90
2022/06/10 06:06:26;;;;;;;8.38;3.13;;;;;;;15.06;83.44;101955.97;4995019;28;20040;-91
2022/06/10 06:08:52;;;;;;;14.43;3.63;;;;;;;15.23;83.24;101963.13;4991045;28;20030;-91
2022/06/10 06:11:18;;;;;;;9.48;3.22;;;;;;;15.32;82.60;101949.22;5000807;28;20031;-90
2022/06/10 06:13:44;;;;;;;9.70;2.95;;;;;;;15.55;82.17;101963.22;4997893;28;20030;-90
2022/06/10 06:16:15;;;;;;;8.15;2.38;;;;;;;15.74;81.67;101965.81;4987470;28;20392;-89
2022/06/10 06:18:40;;;;;;;8.80;3.00;;;;;;;15.91;79.97;101963.06;4993872;28;20479;-89
2022/06/10 06:21:06;;;;;;;9.68;2.75;;;;;;;16.07;79.59;101960.41;4992249;28;20026;-89
2022/06/10 06:23:32;;;;;;;8.27;3.03;;;;;;;16.13;78.44;101968.09;4990371;28;20064;-89
2022/06/10 06:25:58;;;;;;;7.03;2.30;;;;;;;16.29;78.99;101965.41;4981578;28;20038;-90
2022/06/10 06:28:23;;;;;;;6.13;2.17;;;;;;;16.47;77.79;101963.47;4994275;28;20018;-89
2022/06/10 06:30:49;;;;;;;8.23;2.30;;;;;;;16.59;76.61;101968.16;4989899;28;20036;-90
2022/06/10 06:33:14;;;;;;;6.93;2.42;;;;;;;16.69;76.12;101966.66;4983662;28;20031;-90
2022/06/10 06:35:44;;;;;;;6.85;1.95;;;;;;;16.76;74.88;101965.41;4991930;28;20022;-91
2022/06/10 06:38:10;;;;;;;11.18;3.40;;;;;;;16.85;74.47;101967.53;4993762;28;20045;-90
2022/06/10 06:40:35;;;;;;;5.68;2.35;;;;;;;16.88;73.29;101964.63;4981764;28;20035;-90
2022/06/10 06:43:00;;;;;;;7.10;2.28;;;;;;;16.91;74.00;101977.91;4995706;28;20033;-89
2022/06/10 06:45:26;;;;;;;8.82;2.10;;;;;;;16.91;73.80;101974.34;4995618;28;20031;-90
2022/06/10 06:47:51;;;;;;;8.40;1.90;;;;;;;16.97;73.25;101975.81;4994098;28;20030;-90
2022/06/10 06:50:24;;;;;;;8.18;2.13;;;;;;;16.98;73.09;101974.88;4994432;28;20047;-89
2022/06/10 06:52:49;;;;;;;4.68;1.67;;;;;;;17.07;72.16;101979.69;4987651;28;20511;-90
2022/06/10 06:55:15;;;;;;;6.03;1.95;;;;;;;17.11;73.29;101979.41;4994753;28;20038;-89
2022/06/10 06:57:41;;;;;;;5.88;1.80;;;;;;;17.12;73.58;101985.66;4988216;28;20027;-90
2022/06/10 07:00:08;;;;;;;7.50;2.10;;;;;;;17.15;72.29;101990.88;4974694;28;20025;-90
2022/06/10 07:02:36;;;;;;;6.13;1.80;;;;;;;17.12;71.74;101999.09;4974769;28;20030;-90
2022/06/10 07:05:03;;;;;;;7.50;2.30;;;;;;;17.10;71.82;101993.84;4977597;28;20057;-90
2022/06/10 07:07:29;;;;;;;7.78;2.75;;;;;;;17.10;71.81;101990.28;4985064;28;20134;-90
2022/06/10 07:09:54;;;;;;;7.00;2.40;;;;;;;17.18;72.78;101996.94;4985337;28;20035;-90
2022/06/10 07:12:20;;;;;;;6.22;2.25;;;;;;;17.31;72.70;101991.66;4992452;28;20085;-88
2022/06/10 07:14:45;;;;;;;4.13;1.80;;;;;;;17.37;70.28;101985.03;4987328;28;20022;-90
2022/06/10 07:17:11;;;;;;;8.13;1.90;;;;;;;17.38;71.47;101984.94;4992943;28;20035;-89
2022/06/10 07:19:38;;;;;;;8.27;2.45;;;;;;;17.51;70.94;101987.72;4998253;28;20105;-88
2022/06/10 07:22:04;;;;;;;4.45;2.00;;;;;;;17.69;70.07;101991.13;4997189;28;20081;-91
2022/06/10 07:24:29;;;;;;;4.85;1.95;;;;;;;17.92;68.90;101987.84;5002315;28;20033;-90
2022/06/10 07:26:55;;;;;;;6.38;1.83;;;;;;;18.07;68.83;101987.84;4999610;28;20030;-90
2022/06/10 07:29:20;;;;;;;5.57;2.20;;;;;;;18.25;67.97;101994.75;4997879;28;20022;-90
2022/06/10 07:31:45;;;;;;;8.07;2.88;;;;;;;18.37;67.78;101991.25;4991485;28;20037;-89
2022/06/10 07:34:11;;;;;;;6.35;2.20;;;;;;;18.58;66.20;101996.19;4993192;28;20316;-90
2022/06/10 07:36:38;;;;;;;3.03;1.63;;;;;;;18.85;65.85;101996.19;5000160;28;20030;-90
2022/06/10 07:39:05;;;;;;;4.55;1.60;;;;;;;19.19;64.88;101994.78;4990318;28;20030;-89
2022/06/10 07:44:19;;;;;;;4.50;1.60;;;;;;;19.59;63.42;101984.75;4993209;28;20465;-88
2022/06/10 07:46:45;;;;;;;5.32;1.95;;;;;;;19.40;63.71;101995.13;4994203;28;20034;-89
2022/06/10 07:49:10;;;;;;;5.15;1.80;;;;;;;19.09;63.88;101997.22;4991879;28;20030;-91
2022/06/10 07:51:36;;;;;;;6.47;1.90;;;;;;;18.93;64.11;101999.25;4982870;28;20039;-88
2022/06/10 07:54:01;;;;;;;7.72;2.15;;;;;;;18.83;64.78;101996.31;4992840;28;20037;-90
2022/06/10 07:56:27;;;;;;;5.55;1.90;;;;;;;18.85;64.45;101989.00;4990620;28;20042;-90
2022/06/10 07:58:53;;;;;;;7.28;1.98;;;;;;;18.98;65.01;102001.63;4997338;28;20030;-89
2022/06/10 08:01:19;;;;;;;7.53;2.55;;;;;;;19.00;65.67;101984.38;4999540;28;20030;-89
2022/06/10 08:03:44;;;;;;;5.90;1.50;;;;;;;19.19;65.01;101991.19;4996916;28;20031;-91
2022/06/10 08:06:11;;;;;;;7.20;1.77;;;;;;;19.30;63.54;101981.38;4990160;28;20085;-92
2022/06/10 08:08:36;;;;;;;7.18;1.70;;;;;;;19.32;63.30;101974.06;5003517;28;20076;-92
2022/06/10 08:11:02;;;;;;;5.60;1.77;;;;;;;19.43;63.56;101981.41;4989257;28;20034;-92
2022/06/10 08:13:27;;;;;;;3.15;1.90;;;;;;;19.58;60.51;101990.25;4989499;28;20041;-92
2022/06/10 08:15:52;;;;;;;4.65;1.55;;;;;;;19.56;61.88;101992.19;4997723;28;20396;-92
2022/06/10 08:18:20;;;;;;;7.60;2.53;;;;;;;19.61;62.80;101990.09;4992279;28;20029;-91
2022/06/10 08:23:32;;;;;;;5.22;2.10;;;;;;;19.88;61.00;101995.34;4998357;28;20049;-92
2022/06/10 08:25:59;;;;;;;5.22;1.98;;;;;;;19.92;61.16;101987.88;4990737;28;20090;-95
2022/06/10 08:28:25;;;;;;;3.08;1.85;;;;;;;19.93;59.99;101995.00;5004509;28;20101;-93
2022/06/10 08:30:51;;;;;;;6.30;1.58;;;;;;;20.03;60.51;101993.38;5010073;28;20030;-94
2022/06/10 08:33:17;;;;;;;5.72;2.20;;;;;;;20.08;60.06;101993.91;5000170;28;20089;-92
2022/06/10 08:35:42;;;;;;;6.82;2.42;;;;;;;20.03;58.17;101993.38;4997043;28;20419;-92
2022/06/10 08:38:12;;;;;;;6.93;1.88;;;;;;;20.00;59.58;102001.72;5002691;28;20053;-95
2022/06/10 08:40:58;;;;;;;5.30;1.77;;;;;;;20.05;59.64;101997.69;5002136;28;20030;-94
2022/06/10 08:43:37;;;;;;;7.60;2.10;;;;;;;20.07;59.09;102003.00;5001607;28;20028;-91
2022/06/10 08:46:14;;;;;;;4.85;1.90;;;;;;;20.21;58.45;101991.19;4998798;28;20173;-91
2022/06/10 08:49:10;;;;;;;8.70;2.13;;;;;;;20.43;57.83;101998.56;4996916;28;20049;-91
2022/06/10 08:51:47;;;;;;;4.13;1.80;;;;;;;20.97;55.52;101993.56;4991977;28;20055;-90
2022/06/10 08:54:15;;;;;;;6.57;2.08;;;;;;;21.61;53.93;101987.69;4991235;28;20033;-90
2022/06/10 08:56:48;;;;;;;5.63;1.90;;;;;;;22.15;53.49;101980.69;4992867;28;20033;-92
2022/06/10 08:59:30;;;;;;;7.38;2.10;;;;;;;22.28;52.60;101989.53;4994786;28;20045;-90
2022/06/10 09:02:31;;;;;;;7.40;1.88;;;;;;;22.45;52.61;101985.44;4994020;28;20037;-89
2022/06/10 09:05:20;;;;;;;11.40;2.25;;;;;;;23.32;50.82;101967.16;4996599;28;20045;-92
2022/06/10 09:07:51;;;;;;;5.68;2.05;;;;;;;24.03;46.95;101973.53;5006422;28;20026;-93
2022/06/10 09:10:46;;;;;;;7.60;2.17;;;;;;;23.74;49.27;101975.28;5004149;28;20384;-91
2022/06/10 09:13:41;;;;;;;6.57;1.88;;;;;;;24.14;47.79;101979.88;4991794;28;20100;-92
2022/06/10 09:16:29;;;;;;;5.85;2.50;;;;;;;26.07;45.63;101984.31;4971682;28;20049;-94
2022/06/10 09:19:15;;;;;;;5.05;1.98;;;;;;;26.60;42.55;101986.31;4993312;28;20389;-94
2022/06/10 09:22:03;;;;;;;13.07;2.63;;;;;;;27.10;43.08;101987.66;4985115;28;20357;-91
2022/06/10 09:24:43;;;;;;;7.18;2.30;;;;;;;27.31;41.65;101994.47;5005219;28;20046;-91
2022/06/10 09:27:15;;;;;;;4.95;2.05;;;;;;;26.79;40.81;101977.94;4982704;28;20023;-91
2022/06/10 09:29:41;;;;;;;5.43;2.25;;;;;;;26.12;42.15;101983.84;4991624;28;20031;-91
2022/06/10 09:32:52;;;;;;;7.47;2.03;;;;;;;26.45;43.88;101982.38;4991636;28;20475;-93
2022/06/10 09:35:24;;;;;;;10.43;2.03;;;;;;;26.62;41.37;102000.66;4946985;28;20505;-94
2022/06/10 09:38:02;;;;;;;8.27;2.13;;;;;;;27.11;42.13;101987.47;4972820;28;20039;-91
2022/06/10 09:40:40;;;;;;;7.75;2.38;;;;;;;27.18;41.81;101987.72;4954982;29;20047;-92
2022/06/10 09:43:42;;;;;;;9.43;2.42;;;;;;;26.33;42.29;101998.97;4934748;29;20040;-91
2022/06/10 09:46:36;;;;;;;8.15;2.05;;;;;;;26.28;42.96;101998.56;4934598;29;20038;-91
2022/06/10 09:49:19;;;;;;;9.60;2.42;;;;;;;25.76;43.17;101989.19;4949083;28;20047;-94
2022/06/10 09:51:50;;;;;;;;;;;;;;;25.49;45.30;101987.25;4945994;28;20554;-92
2022/06/10 09:54:32;;;;;;;7.13;2.20;;;;;;;24.48;46.64;101985.84;4954273;29;19918;-91
2022/06/10 09:57:08;;;;;;;6.70;2.25;;;;;;;23.68;48.02;101994.88;4945530;28;20044;-91
2022/06/10 09:59:53;;;;;;;4.72;2.58;;;;;;;22.90;50.19;101999.75;4937748;28;20477;-91
2022/06/10 10:02:34;;;;;;;6.70;2.22;;;;;;;22.56;50.86;102005.25;4949067;28;20039;-91
2022/06/10 10:05:12;;;;;;;9.43;2.83;;;;;;;22.28;51.74;102006.72;4939142;28;20043;-91
2022/06/10 10:07:50;;;;;;;9.15;2.70;;;;;;;22.69;51.54;102002.38;4937202;29;20410;-92
2022/06/10 10:10:31;;;;;;;9.52;2.90;;;;;;;23.09;51.15;102001.75;4952292;28;20103;-93
2022/06/10 10:13:15;;;;;;;8.30;2.70;;;;;;;23.01;50.72;101996.97;4975360;28;20108;-94
2022/06/10 10:15:57;;;;;;;;;;;;;;;22.99;51.18;102004.41;4991939;28;20138;-92
2022/06/10 10:18:40;;;;;;;9.40;3.25;;;;;;;25.04;48.17;101998.75;4992172;28;19961;-93
2022/06/10 10:21:10;;;;;;;14.77;2.97;;;;;;;28.25;40.39;101984.53;4989042;28;20042;-90
2022/06/10 10:23:46;;;;;;;8.98;2.60;;;;;;;28.74;40.02;101991.03;4990960;28;20026;-90
2022/06/10 10:26:20;;;;;;;8.40;3.00;;;;;;;27.72;39.87;101994.75;4991646;28;20032;-90
2022/06/10 10:28:46;;;;;;;9.68;2.78;;;;;;;26.09;43.06;101995.94;4989448;28;20030;-89
2022/06/10 10:31:17;;;;;;;7.75;2.80;;;;;;;25.85;43.48;102001.09;4983813;28;20365;-91
2022/06/10 10:33:43;;;;;;;6.90;2.58;;;;;;;26.01;43.05;102006.75;4992682;28;20032;-89
2022/06/10 10:36:36;;;;;;;8.90;2.80;;;;;;;25.72;45.48;101995.94;4988505;28;20185;-89
2022/06/10 10:39:17;;;;;;;7.43;2.85;;;;;;;26.13;45.08;101994.63;4977079;28;20108;-88
2022/06/10 10:41:48;;;;;;;7.93;2.67;;;;;;;25.82;45.13;101994.91;4982494;28;20029;-88
2022/06/10 10:44:31;;;;;;;5.82;2.42;;;;;;;25.43;45.91;101976.94;5001413;28;20044;-89
2022/06/10 10:47:19;;;;;;;9.93;3.30;;;;;;;26.47;43.09;101985.84;4998182;28;20038;-89
2022/06/10 10:50:15;;;;;;;6.63;2.60;;;;;;;27.62;41.56;101971.25;5006204;28;20037;-89
2022/06/10 10:52:44;;;;;;;8.52;2.92;;;;;;;29.56;37.59;101971.84;4989611;28;20043;-89
2022/06/10 10:55:09;;;;;;;6.10;2.63;;;;;;;31.55;33.71;101974.84;4995431;28;20049;-91
2022/06/10 10:57:37;;;;;;;8.53;2.60;;;;;;;32.44;32.30;101975.66;4991423;28;20045;-89
2022/06/10 11:00:05;;;;;;;7.40;2.40;;;;;;;33.35;31.57;101962.06;4997328;28;20290;-93
2022/06/10 11:02:54;;;;;;;7.35;2.35;;;;;;;33.36;31.66;101961.00;4992932;28;20058;-89
2022/06/10 11:05:35;;;;;;;6.47;2.40;;;;;;;34.15;32.18;101974.44;4993016;28;20056;-89
2022/06/10 11:08:15;;;;;;;5.45;2.78;;;;;;;35.08;29.83;101969.16;4993271;28;20122;-93
2022/06/10 11:10:52;;;;;;;7.78;2.72;;;;;;;33.22;32.03;101973.84;4997618;28;20041;-91
2022/06/10 11:13:41;;;;;;;8.38;2.70;;;;;;;31.71;34.67;101967.25;4987654;28;20058;-90
2022/06/10 11:16:31;;;;;;;6.07;2.20;;;;;;;30.62;35.69;101974.09;4987794;28;20045;-89
2022/06/10 11:19:14;;;;;;;9.38;2.75;;;;;;;30.06;36.36;101986.22;4994433;28;20030;-91
2022/06/10 11:22:02;;;;;;;8.00;2.50;;;;;;;28.50;38.25;101977.28;4992152;28;20030;-89
2022/06/10 11:24:50;;;;;;;6.32;2.40;;;;;;;28.29;40.85;101974.97;4988950;28;20043;-89
2022/06/10 11:27:40;;;;;;;8.75;2.90;;;;;;;29.55;36.94;101970.06;4991859;28;20031;-91
2022/06/10 11:30:11;;;;;;;7.28;2.28;;;;;;;27.86;40.10;101971.41;4982511;28;20049;-88
2022/06/10 11:32:48;;;;;;;8.82;2.70;;;;;;;26.54;42.31;101974.16;4982267;28;20027;-89
2022/06/10 11:35:33;;;;;;;6.90;2.80;;;;;;;25.61;44.34;101966.97;4995843;28;20030;-90
2022/06/10 11:38:04;;;;;;;8.73;2.92;;;;;;;24.74;47.07;101965.22;4996378;28;20391;-88
2022/06/10 11:40:46;;;;;;;9.35;3.00;;;;;;;24.15;48.18;101971.56;4987305;28;20054;-89
2022/06/10 11:43:23;;;;;;;8.95;3.13;;;;;;;23.72;49.11;101963.69;4987299;28;20022;-88
2022/06/10 11:46:01;;;;;;;8.77;3.20;;;;;;;23.60;49.86;101971.03;4997952;28;20093;-86
2022/06/10 11:48:42;;;;;;;10.05;3.38;;;;;;;23.34;50.32;101955.19;4987766;28;20096;-87
2022/06/10 11:51:16;;;;;;;6.40;2.88;;;;;;;23.90;49.67;101955.75;4984218;28;20038;-87
2022/06/10 11:54:12;;;;;;;9.70;2.70;;;;;;;27.26;43.95;101954.97;4980884;28;20152;-84
2022/06/10 12:00:00;;;;;;;6.43;2.15;;;;;;;32.59;32.44;101948.03;4970800;28;20037;-86
2022/06/10 12:02:38;;;;;;;;;;;;;;;33.45;33.86;101957.09;4989067;28;20595;-85
2022/06/10 12:05:18;;;;;;;6.85;2.67;;;;;;;32.14;32.94;101950.88;4988024;28;19960;-86